Time;durP1;ratioP1;P1;durP2;ratioP2;P2;SDS_P1;SDS_P2;PMS_P1;PMS_P2;Temp;Humidity;BMP_temperature;BMP_pressure;BME280_temperature;BME280_humidity;BME280_pressure;Samples;Min_cycle;Max_cycle;Signal;HPM_P1;HPM_P2
2023/03/30 00:00:48;;;;;;;11.67;10.57;;;;;;;;;;4957155;29;20202;-50
2023/03/30 00:03:18;;;;;;;13.30;11.30;;;;;;;;;;4956604;29;20235;-50
2023/03/30 00:05:45;;;;;;;11.60;10.50;;;;;;;;;;4957132;28;20208;-50
2023/03/30 00:08:13;;;;;;;12.83;10.77;;;;;;;;;;4957131;28;20307;-51
2023/03/30 00:10:39;;;;;;;13.20;10.43;;;;;;;;;;4954986;28;20316;-50
2023/03/30 00:13:06;;;;;;;12.43;10.13;;;;;;;;;;4955123;28;20366;-51
2023/03/30 00:15:33;;;;;;;11.00;9.87;;;;;;;;;;4956808;28;20276;-51
2023/03/30 00:18:00;;;;;;;12.43;10.10;;;;;;;;;;4956750;29;20203;-51
2023/03/30 00:20:26;;;;;;;12.13;10.00;;;;;;;;;;4956903;29;20203;-52
2023/03/30 00:22:52;;;;;;;12.20;10.87;;;;;;;;;;4956623;29;20251;-51
2023/03/30 00:25:19;;;;;;;11.70;9.57;;;;;;;;;;4956805;29;20204;-52
2023/03/30 00:27:45;;;;;;;11.17;10.00;;;;;;;;;;4956726;29;20203;-51
2023/03/30 00:30:12;;;;;;;11.63;9.83;;;;;;;;;;4956501;29;20255;-52
2023/03/30 00:32:38;;;;;;;11.40;9.57;;;;;;;;;;4956453;29;20697;-53
2023/03/30 00:35:06;;;;;;;12.37;10.30;;;;;;;;;;4956329;29;20707;-52
2023/03/30 00:37:36;;;;;;;12.07;9.67;;;;;;;;;;4956435;29;20684;-52
2023/03/30 00:40:03;;;;;;;11.43;9.53;;;;;;;;;;4956489;28;20259;-52
2023/03/30 00:42:29;;;;;;;12.10;9.80;;;;;;;;;;4956627;28;20235;-52
2023/03/30 00:45:19;;;;;;;11.33;9.47;;;;;;;;;;4956565;28;20203;-52
2023/03/30 00:47:49;;;;;;;11.90;10.70;;;;;;;;;;4956472;29;20578;-52
2023/03/30 00:50:20;;;;;;;12.53;10.07;;;;;;;;;;4956318;29;20263;-52
2023/03/30 00:52:47;;;;;;;11.40;10.30;;;;;;;;;;4955789;28;20255;-52
2023/03/30 00:55:13;;;;;;;12.03;10.07;;;;;;;;;;4955908;29;20634;-52
2023/03/30 00:57:41;;;;;;;13.07;10.10;;;;;;;;;;4956012;29;20682;-51
2023/03/30 01:00:10;;;;;;;11.63;10.40;;;;;;;;;;4956045;28;20718;-53
2023/03/30 01:02:38;;;;;;;11.20;9.77;;;;;;;;;;4956002;28;20231;-52
2023/03/30 01:05:05;;;;;;;12.13;9.40;;;;;;;;;;4955976;29;20207;-53
2023/03/30 01:07:33;;;;;;;12.23;9.03;;;;;;;;;;4956039;29;20291;-52
2023/03/30 01:09:59;;;;;;;11.40;9.17;;;;;;;;;;4956070;29;20199;-52
2023/03/30 01:12:25;;;;;;;10.23;9.20;;;;;;;;;;4955858;29;20206;-52
2023/03/30 01:14:51;;;;;;;10.57;9.10;;;;;;;;;;4955877;29;20250;-52
2023/03/30 01:17:25;;;;;;;10.40;9.30;;;;;;;;;;4955640;29;20227;-52
2023/03/30 01:20:11;;;;;;;12.70;9.57;;;;;;;;;;4955756;28;20626;-52
2023/03/30 01:22:51;;;;;;;10.60;8.83;;;;;;;;;;4955739;28;20238;-52
2023/03/30 01:25:37;;;;;;;9.77;8.73;;;;;;;;;;4955665;28;20212;-52
2023/03/30 01:28:20;;;;;;;9.40;8.40;;;;;;;;;;4955612;28;20204;-52
2023/03/30 01:31:14;;;;;;;9.80;8.47;;;;;;;;;;4955536;29;20200;-53
2023/03/30 01:33:51;;;;;;;10.13;8.70;;;;;;;;;;4955429;28;20246;-52
2023/03/30 01:36:27;;;;;;;9.53;8.43;;;;;;;;;;4955362;29;20207;-52
2023/03/30 01:39:05;;;;;;;9.73;8.70;;;;;;;;;;4955435;28;20215;-53
2023/03/30 01:41:33;;;;;;;8.93;8.03;;;;;;;;;;4955433;28;20246;-52
2023/03/30 01:44:01;;;;;;;9.27;8.37;;;;;;;;;;4955361;28;20200;-52
2023/03/30 01:46:29;;;;;;;9.07;8.17;;;;;;;;;;4955620;29;20243;-52
2023/03/30 01:48:59;;;;;;;9.03;8.07;;;;;;;;;;4955133;29;20200;-52
2023/03/30 01:51:27;;;;;;;9.70;7.60;;;;;;;;;;4955374;29;20217;-52
2023/03/30 01:53:57;;;;;;;8.77;7.93;;;;;;;;;;4955129;29;20200;-52
2023/03/30 01:56:27;;;;;;;8.80;7.90;;;;;;;;;;4955058;29;20204;-52
2023/03/30 01:58:55;;;;;;;11.97;7.90;;;;;;;;;;4955030;28;20692;-52
2023/03/30 02:01:21;;;;;;;8.80;7.53;;;;;;;;;;4954954;29;20203;-52
2023/03/30 02:03:49;;;;;;;10.53;8.17;;;;;;;;;;4954880;28;20211;-52
2023/03/30 02:06:23;;;;;;;9.03;7.10;;;;;;;;;;4954574;28;20571;-51
2023/03/30 02:08:49;;;;;;;7.63;6.83;;;;;;;;;;4954914;28;20259;-53
2023/03/30 02:11:15;;;;;;;7.43;6.50;;;;;;;;;;4954756;29;20200;-52
2023/03/30 02:13:44;;;;;;;9.53;7.40;;;;;;;;;;4955249;29;20290;-52
2023/03/30 02:16:14;;;;;;;10.67;6.73;;;;;;;;;;4954699;28;20215;-52
2023/03/30 02:18:40;;;;;;;6.53;5.93;;;;;;;;;;4954627;29;20195;-53
2023/03/30 02:21:07;;;;;;;10.23;7.00;;;;;;;;;;4954492;29;20207;-52
2023/03/30 02:23:35;;;;;;;7.93;6.67;;;;;;;;;;4954605;28;20220;-53
2023/03/30 02:26:01;;;;;;;7.13;5.97;;;;;;;;;;4954477;29;20203;-52
2023/03/30 02:28:27;;;;;;;7.03;6.33;;;;;;;;;;4954594;29;20246;-52
2023/03/30 02:30:55;;;;;;;7.13;6.43;;;;;;;;;;4954367;29;20223;-53
2023/03/30 02:36:52;;;;;;;10.30;6.17;;;;;;;;;;4946340;29;20222;-53
2023/03/30 02:39:23;;;;;;;6.90;5.90;;;;;;;;;;4954287;29;20335;-52
2023/03/30 02:41:59;;;;;;;8.90;5.97;;;;;;;;;;4954275;28;20228;-52
2023/03/30 02:44:31;;;;;;;7.50;6.07;;;;;;;;;;4954300;29;20213;-52
2023/03/30 02:47:03;;;;;;;6.43;5.73;;;;;;;;;;4954351;28;20286;-53
2023/03/30 02:49:35;;;;;;;6.67;5.37;;;;;;;;;;4954246;29;20286;-53
2023/03/30 02:52:07;;;;;;;5.70;5.10;;;;;;;;;;4954177;29;20206;-53
2023/03/30 02:54:40;;;;;;;7.77;5.50;;;;;;;;;;4954053;29;20298;-52
2023/03/30 02:57:10;;;;;;;7.37;5.30;;;;;;;;;;4954042;29;20204;-53
2023/03/30 02:59:40;;;;;;;6.60;4.90;;;;;;;;;;4953875;29;20207;-52
2023/03/30 03:02:10;;;;;;;6.63;5.20;;;;;;;;;;4953860;29;20219;-53
2023/03/30 03:04:36;;;;;;;6.23;5.00;;;;;;;;;;4953984;28;20643;-52
2023/03/30 03:07:02;;;;;;;5.77;5.10;;;;;;;;;;4953716;29;20204;-53
2023/03/30 03:09:28;;;;;;;8.33;5.30;;;;;;;;;;4953695;29;20225;-53
2023/03/30 03:11:55;;;;;;;6.20;4.80;;;;;;;;;;4953912;29;20210;-53
2023/03/30 03:14:21;;;;;;;6.23;4.40;;;;;;;;;;4953675;29;20266;-53
2023/03/30 03:16:47;;;;;;;5.30;4.37;;;;;;;;;;4953147;29;20262;-53
2023/03/30 03:19:15;;;;;;;6.63;4.57;;;;;;;;;;4953833;29;20608;-53
2023/03/30 03:21:41;;;;;;;5.40;4.20;;;;;;;;;;4953987;28;20204;-53
2023/03/30 03:24:07;;;;;;;6.27;3.67;;;;;;;;;;4953703;29;20765;-53
2023/03/30 03:26:33;;;;;;;7.73;3.93;;;;;;;;;;4953509;29;20211;-53
2023/03/30 03:28:59;;;;;;;6.37;3.97;;;;;;;;;;4953681;29;20292;-54
2023/03/30 03:31:26;;;;;;;6.90;3.50;;;;;;;;;;4953441;29;20290;-52
2023/03/30 03:33:52;;;;;;;5.17;3.60;;;;;;;;;;4953558;28;20679;-52
2023/03/30 03:36:19;;;;;;;6.03;3.70;;;;;;;;;;4953302;29;20383;-52
2023/03/30 03:38:45;;;;;;;5.97;3.80;;;;;;;;;;4953723;29;20717;-53
2023/03/30 03:41:13;;;;;;;6.30;4.10;;;;;;;;;;4953755;29;20222;-52
2023/03/30 03:43:39;;;;;;;4.77;3.60;;;;;;;;;;4953362;29;20235;-52
2023/03/30 03:46:05;;;;;;;7.43;3.93;;;;;;;;;;4953493;29;20441;-52
2023/03/30 03:48:31;;;;;;;7.77;3.70;;;;;;;;;;4953293;29;20200;-52
2023/03/30 03:50:58;;;;;;;6.43;3.63;;;;;;;;;;4953789;29;20674;-53
2023/03/30 03:53:26;;;;;;;7.00;3.60;;;;;;;;;;4953337;29;20296;-53
2023/03/30 03:55:53;;;;;;;4.70;3.20;;;;;;;;;;4953492;29;20250;-53
2023/03/30 03:58:20;;;;;;;4.97;3.53;;;;;;;;;;4953304;28;20559;-53
2023/03/30 04:00:46;;;;;;;5.87;3.87;;;;;;;;;;4953543;28;20327;-53
2023/03/30 04:03:12;;;;;;;6.37;4.13;;;;;;;;;;4953170;29;20241;-52
2023/03/30 04:05:38;;;;;;;6.47;3.90;;;;;;;;;;4953329;29;20207;-52
2023/03/30 04:08:05;;;;;;;7.13;3.70;;;;;;;;;;4953189;29;20199;-54
2023/03/30 04:10:32;;;;;;;5.83;3.70;;;;;;;;;;4953221;29;20207;-52
2023/03/30 04:12:58;;;;;;;5.63;3.33;;;;;;;;;;4953383;29;20200;-52
2023/03/30 04:15:24;;;;;;;4.93;3.20;;;;;;;;;;4953130;29;20204;-49
2023/03/30 04:17:56;;;;;;;5.63;3.40;;;;;;;;;;4953116;29;20199;-51
2023/03/30 04:20:23;;;;;;;6.60;4.00;;;;;;;;;;4953074;28;20208;-51
2023/03/30 04:22:49;;;;;;;4.57;3.03;;;;;;;;;;4953173;29;20227;-51
2023/03/30 04:25:15;;;;;;;5.50;3.47;;;;;;;;;;4953207;29;20208;-51
2023/03/30 04:27:42;;;;;;;5.87;3.50;;;;;;;;;;4954224;28;20251;-51
2023/03/30 04:30:08;;;;;;;5.17;3.10;;;;;;;;;;4956768;29;20218;-52
2023/03/30 04:32:37;;;;;;;6.07;3.80;;;;;;;;;;4956618;29;20314;-52
2023/03/30 04:35:04;;;;;;;6.07;3.63;;;;;;;;;;4956452;28;20659;-51
2023/03/30 04:37:30;;;;;;;3.07;2.73;;;;;;;;;;4956310;28;20664;-51
2023/03/30 04:39:56;;;;;;;4.23;3.40;;;;;;;;;;4956588;29;20635;-52
2023/03/30 04:42:28;;;;;;;13.67;4.87;;;;;;;;;;4956234;29;20223;-52
2023/03/30 04:44:56;;;;;;;5.83;3.80;;;;;;;;;;4956489;28;20250;-51
2023/03/30 04:47:22;;;;;;;7.93;3.50;;;;;;;;;;4956261;28;20233;-52
2023/03/30 04:49:48;;;;;;;7.87;3.17;;;;;;;;;;4956367;29;20281;-52
2023/03/30 04:52:14;;;;;;;8.90;3.70;;;;;;;;;;4956383;29;20670;-53
2023/03/30 04:54:40;;;;;;;6.73;3.43;;;;;;;;;;4956174;29;20204;-52
2023/03/30 04:57:06;;;;;;;4.80;3.50;;;;;;;;;;4956547;29;20204;-52
2023/03/30 04:59:32;;;;;;;6.57;3.43;;;;;;;;;;4956155;29;20569;-53
2023/03/30 05:02:00;;;;;;;6.77;3.50;;;;;;;;;;4956183;29;20224;-53
2023/03/30 05:04:26;;;;;;;5.30;3.03;;;;;;;;;;4956061;29;20243;-52
2023/03/30 05:06:52;;;;;;;5.57;3.13;;;;;;;;;;4956087;29;20572;-53
2023/03/30 05:09:18;;;;;;;8.17;3.63;;;;;;;;;;4955887;29;20690;-53
2023/03/30 05:11:44;;;;;;;6.37;3.63;;;;;;;;;;4956154;29;20290;-52
2023/03/30 05:14:10;;;;;;;6.97;3.83;;;;;;;;;;4956022;28;20204;-53
2023/03/30 05:16:36;;;;;;;3.77;3.20;;;;;;;;;;4955765;29;20195;-52
2023/03/30 05:19:03;;;;;;;8.70;4.30;;;;;;;;;;4955741;29;20195;-53
2023/03/30 05:21:30;;;;;;;6.57;3.77;;;;;;;;;;4955767;29;20207;-53
2023/03/30 05:23:56;;;;;;;6.50;3.97;;;;;;;;;;4955719;28;20242;-52
2023/03/30 05:26:22;;;;;;;7.77;4.60;;;;;;;;;;4955508;29;20192;-53
2023/03/30 05:28:48;;;;;;;8.20;4.43;;;;;;;;;;4955452;28;20574;-52
2023/03/30 05:31:14;;;;;;;13.37;7.73;;;;;;;;;;4955418;29;20282;-53
2023/03/30 05:33:40;;;;;;;6.30;4.80;;;;;;;;;;4955433;29;20200;-53
2023/03/30 05:36:08;;;;;;;8.67;4.90;;;;;;;;;;4955316;29;20279;-52
2023/03/30 05:38:35;;;;;;;6.93;4.83;;;;;;;;;;4955264;28;20615;-52
2023/03/30 05:41:01;;;;;;;7.17;4.60;;;;;;;;;;4954654;28;20206;-52
2023/03/30 05:43:27;;;;;;;8.43;5.20;;;;;;;;;;4955232;29;20231;-53
2023/03/30 05:45:53;;;;;;;7.47;5.17;;;;;;;;;;4955171;29;20266;-53
2023/03/30 05:48:19;;;;;;;8.83;5.27;;;;;;;;;;4955178;29;20299;-52
2023/03/30 05:50:46;;;;;;;9.77;5.60;;;;;;;;;;4955509;28;20208;-53
2023/03/30 05:53:14;;;;;;;6.57;4.47;;;;;;;;;;4955294;29;20286;-53
2023/03/30 05:55:42;;;;;;;6.47;4.77;;;;;;;;;;4955113;29;20686;-53
2023/03/30 05:58:08;;;;;;;7.47;5.07;;;;;;;;;;4955022;29;20191;-52
2023/03/30 06:00:36;;;;;;;7.50;5.07;;;;;;;;;;4955251;29;20642;-52
2023/03/30 06:03:03;;;;;;;7.03;5.00;;;;;;;;;;4954836;28;20231;-53
2023/03/30 06:05:29;;;;;;;6.60;4.80;;;;;;;;;;4954998;28;20199;-53
2023/03/30 06:07:55;;;;;;;6.10;4.67;;;;;;;;;;4955116;28;20213;-53
2023/03/30 06:10:22;;;;;;;7.27;4.80;;;;;;;;;;4954707;29;20199;-53
2023/03/30 06:12:48;;;;;;;8.87;4.47;;;;;;;;;;4954671;29;20233;-53
2023/03/30 06:15:15;;;;;;;6.93;4.67;;;;;;;;;;4954898;29;20211;-53
2023/03/30 06:17:41;;;;;;;8.87;4.13;;;;;;;;;;4954513;28;20200;-53
2023/03/30 06:20:11;;;;;;;6.40;4.23;;;;;;;;;;4954513;28;20212;-54
2023/03/30 06:22:37;;;;;;;6.60;4.40;;;;;;;;;;4954257;28;20234;-53
2023/03/30 06:25:03;;;;;;;5.70;4.13;;;;;;;;;;4954330;29;20223;-53
2023/03/30 06:27:31;;;;;;;7.70;4.70;;;;;;;;;;4954393;28;20196;-53
2023/03/30 06:29:57;;;;;;;8.00;4.67;;;;;;;;;;4954415;28;20225;-53
2023/03/30 06:32:24;;;;;;;7.33;5.00;;;;;;;;;;4954041;29;20701;-53
2023/03/30 06:34:51;;;;;;;6.33;5.13;;;;;;;;;;4954162;28;20588;-52
2023/03/30 06:37:18;;;;;;;6.57;4.80;;;;;;;;;;4953947;28;20230;-52
2023/03/30 06:39:44;;;;;;;7.43;4.63;;;;;;;;;;4958665;28;20681;-52
2023/03/30 06:42:10;;;;;;;8.80;4.77;;;;;;;;;;4973228;28;20227;-52
2023/03/30 06:44:38;;;;;;;10.77;4.90;;;;;;;;;;4973251;28;20214;-52
2023/03/30 06:47:05;;;;;;;6.00;4.30;;;;;;;;;;4973183;28;20214;-53
2023/03/30 06:49:31;;;;;;;6.43;4.20;;;;;;;;;;4973274;28;20199;-53
2023/03/30 06:51:57;;;;;;;6.40;4.20;;;;;;;;;;4973417;28;20199;-52
2023/03/30 06:54:23;;;;;;;7.33;4.57;;;;;;;;;;4973064;28;20195;-52
2023/03/30 06:56:49;;;;;;;8.43;4.10;;;;;;;;;;4973055;28;20541;-53
2023/03/30 06:59:15;;;;;;;6.70;4.03;;;;;;;;;;4973134;28;20290;-52
2023/03/30 07:01:43;;;;;;;11.43;3.80;;;;;;;;;;4973285;28;20654;-52
2023/03/30 07:04:09;;;;;;;7.13;3.97;;;;;;;;;;4972968;28;20298;-53
2023/03/30 07:06:35;;;;;;;8.70;4.10;;;;;;;;;;4972883;28;20237;-53
2023/03/30 07:09:04;;;;;;;8.23;3.90;;;;;;;;;;4972974;28;20245;-52
2023/03/30 07:11:30;;;;;;;6.50;3.93;;;;;;;;;;4972944;28;20198;-54
2023/03/30 07:13:57;;;;;;;5.43;3.70;;;;;;;;;;4973193;28;20250;-52
2023/03/30 07:16:23;;;;;;;5.50;3.50;;;;;;;;;;4972806;28;20294;-53
2023/03/30 07:18:51;;;;;;;9.47;3.37;;;;;;;;;;4972726;28;20724;-53
2023/03/30 07:21:17;;;;;;;6.23;3.87;;;;;;;;;;4972793;28;20496;-53
2023/03/30 07:23:43;;;;;;;6.37;3.37;;;;;;;;;;4972920;28;20231;-53
2023/03/30 07:26:09;;;;;;;8.37;3.60;;;;;;;;;;4972849;28;20214;-54
2023/03/30 07:28:39;;;;;;;4.50;3.10;;;;;;;;;;4972623;28;20574;-54
2023/03/30 07:31:06;;;;;;;5.23;3.30;;;;;;;;;;4972587;28;20326;-54
2023/03/30 07:33:32;;;;;;;6.27;3.10;;;;;;;;;;4972640;28;20195;-54
2023/03/30 07:35:59;;;;;;;4.33;3.37;;;;;;;;;;4972779;28;20239;-59
2023/03/30 07:38:25;;;;;;;5.27;3.10;;;;;;;;;;4972490;28;20206;-54
2023/03/30 07:40:52;;;;;;;6.13;3.70;;;;;;;;;;4972655;28;20199;-54
2023/03/30 07:43:18;;;;;;;10.13;3.23;;;;;;;;;;4972431;28;20230;-53
2023/03/30 07:45:44;;;;;;;6.23;3.00;;;;;;;;;;4972681;28;20289;-54
2023/03/30 07:48:10;;;;;;;9.60;5.77;;;;;;;;;;4972474;28;20335;-53
2023/03/30 07:50:36;;;;;;;9.10;2.90;;;;;;;;;;4972482;28;20563;-53
2023/03/30 07:53:03;;;;;;;6.00;2.90;;;;;;;;;;4972464;28;20205;-52
2023/03/30 07:55:29;;;;;;;4.83;2.87;;;;;;;;;;4972481;28;20206;-54
2023/03/30 07:57:56;;;;;;;4.60;2.33;;;;;;;;;;4972384;28;20257;-52
2023/03/30 08:00:22;;;;;;;4.67;2.80;;;;;;;;;;4972277;28;20290;-54
2023/03/30 08:02:48;;;;;;;3.50;2.40;;;;;;;;;;4973410;28;20701;-54
2023/03/30 08:05:16;;;;;;;5.10;2.90;;;;;;;;;;4976185;28;20278;-54
2023/03/30 08:07:42;;;;;;;5.03;2.43;;;;;;;;;;4976211;28;20207;-54
2023/03/30 08:10:10;;;;;;;4.40;2.93;;;;;;;;;;4976137;28;20286;-53
2023/03/30 08:12:36;;;;;;;4.77;2.60;;;;;;;;;;4975780;28;20203;-54
2023/03/30 08:15:02;;;;;;;7.20;3.00;;;;;;;;;;4976020;28;20207;-53
2023/03/30 08:17:28;;;;;;;5.40;2.27;;;;;;;;;;4975921;28;20203;-53
2023/03/30 08:19:57;;;;;;;4.77;2.63;;;;;;;;;;4975873;28;20207;-54
2023/03/30 08:22:23;;;;;;;3.93;2.93;;;;;;;;;;4975700;28;20246;-53
2023/03/30 08:24:50;;;;;;;5.13;2.43;;;;;;;;;;4975808;28;20195;-52
2023/03/30 08:27:17;;;;;;;4.27;2.40;;;;;;;;;;4975785;28;20601;-53
2023/03/30 08:29:43;;;;;;;4.07;2.40;;;;;;;;;;4976141;28;20218;-52
2023/03/30 08:32:09;;;;;;;3.67;1.80;;;;;;;;;;4975507;28;20219;-50
2023/03/30 08:34:35;;;;;;;2.93;1.90;;;;;;;;;;4975654;28;20261;-52
2023/03/30 08:37:01;;;;;;;2.17;1.70;;;;;;;;;;4975502;28;20297;-51
2023/03/30 08:39:30;;;;;;;2.93;1.80;;;;;;;;;;4975552;28;20658;-53
2023/03/30 08:42:01;;;;;;;6.23;2.10;;;;;;;;;;4975540;28;20206;-54
2023/03/30 08:44:32;;;;;;;2.27;1.77;;;;;;;;;;4975487;28;20203;-53
2023/03/30 08:46:59;;;;;;;3.10;1.87;;;;;;;;;;4975381;28;20607;-54
2023/03/30 08:49:26;;;;;;;3.80;2.20;;;;;;;;;;4975278;28;20199;-52
2023/03/30 08:51:53;;;;;;;7.27;2.17;;;;;;;;;;4975468;28;20634;-57
2023/03/30 08:54:21;;;;;;;3.50;2.00;;;;;;;;;;4975238;28;20203;-54
2023/03/30 08:56:51;;;;;;;3.47;1.97;;;;;;;;;;4975178;28;20620;-54
2023/03/30 08:59:21;;;;;;;2.70;2.00;;;;;;;;;;4975158;28;20224;-53
2023/03/30 09:01:52;;;;;;;3.73;1.87;;;;;;;;;;4952855;28;20208;-54
2023/03/30 09:04:24;;;;;;;4.40;2.23;;;;;;;;;;4955623;29;20557;-53
2023/03/30 09:06:52;;;;;;;5.50;2.10;;;;;;;;;;4955690;29;20199;-54
2023/03/30 09:09:19;;;;;;;3.20;1.90;;;;;;;;;;4955593;28;20231;-53
2023/03/30 09:11:46;;;;;;;2.90;1.93;;;;;;;;;;4953732;29;20274;-54
2023/03/30 09:14:14;;;;;;;4.93;2.07;;;;;;;;;;4953056;28;20200;-53
2023/03/30 09:16:44;;;;;;;5.50;2.20;;;;;;;;;;4955555;29;20251;-54
2023/03/30 09:19:14;;;;;;;4.13;2.10;;;;;;;;;;4955714;29;20199;-54
2023/03/30 09:21:40;;;;;;;3.37;1.80;;;;;;;;;;4955592;29;20270;-54
2023/03/30 09:24:11;;;;;;;4.13;2.70;;;;;;;;;;4955608;29;20877;-52
2023/03/30 09:26:41;;;;;;;4.43;2.57;;;;;;;;;;4955525;29;20625;-54
2023/03/30 09:29:12;;;;;;;3.57;2.40;;;;;;;;;;4955516;29;20617;-49
2023/03/30 09:31:40;;;;;;;5.20;2.20;;;;;;;;;;4955268;28;20223;-51
2023/03/30 09:34:11;;;;;;;2.40;2.20;;;;;;;;;;4955411;28;20459;-54
2023/03/30 09:36:43;;;;;;;4.00;2.40;;;;;;;;;;4955218;29;20242;-54
2023/03/30 09:39:10;;;;;;;5.83;2.50;;;;;;;;;;4955254;29;20203;-54
2023/03/30 09:41:42;;;;;;;4.37;2.20;;;;;;;;;;4955262;29;20420;-55
2023/03/30 09:44:12;;;;;;;3.30;2.30;;;;;;;;;;4955151;29;20227;-54
2023/03/30 09:46:39;;;;;;;5.30;2.30;;;;;;;;;;4955026;29;20207;-53
2023/03/30 09:49:13;;;;;;;4.10;2.33;;;;;;;;;;4955049;28;20606;-55
2023/03/30 09:51:51;;;;;;;5.87;2.37;;;;;;;;;;4954966;28;20218;-54
2023/03/30 09:54:18;;;;;;;5.57;2.83;;;;;;;;;;4954909;29;20602;-53
2023/03/30 09:56:46;;;;;;;4.70;2.00;;;;;;;;;;4955065;29;20227;-53
2023/03/30 09:59:20;;;;;;;5.83;2.30;;;;;;;;;;4955111;28;20208;-54
2023/03/30 10:01:46;;;;;;;6.50;2.30;;;;;;;;;;4954723;28;20278;-53
2023/03/30 10:04:14;;;;;;;4.17;2.13;;;;;;;;;;4954855;29;20676;-53
2023/03/30 10:06:46;;;;;;;2.93;2.10;;;;;;;;;;4954574;28;20204;-54
2023/03/30 10:09:12;;;;;;;3.27;2.23;;;;;;;;;;4954771;29;20203;-54
2023/03/30 10:11:40;;;;;;;4.40;2.20;;;;;;;;;;4954464;29;20283;-53
2023/03/30 10:14:11;;;;;;;4.63;2.60;;;;;;;;;;4954571;29;20206;-55
2023/03/30 10:16:37;;;;;;;3.30;2.20;;;;;;;;;;4954350;29;20206;-54
2023/03/30 10:19:04;;;;;;;4.97;2.13;;;;;;;;;;4954351;29;20207;-54
2023/03/30 10:21:31;;;;;;;5.93;2.63;;;;;;;;;;4954479;29;20203;-54
2023/03/30 10:24:03;;;;;;;7.60;4.90;;;;;;;;;;4954433;29;20274;-53
2023/03/30 10:26:30;;;;;;;5.83;2.57;;;;;;;;;;4954405;28;20200;-54
2023/03/30 10:28:59;;;;;;;6.37;2.00;;;;;;;;;;4954433;29;20203;-54
2023/03/30 10:31:26;;;;;;;5.00;2.10;;;;;;;;;;4954073;28;20231;-58
2023/03/30 10:33:54;;;;;;;5.73;2.53;;;;;;;;;;4954277;29;20192;-54
2023/03/30 10:36:21;;;;;;;3.47;2.00;;;;;;;;;;4954016;29;20231;-53
2023/03/30 10:38:47;;;;;;;3.90;2.17;;;;;;;;;;4954122;29;20802;-54
2023/03/30 10:41:16;;;;;;;4.17;2.10;;;;;;;;;;4954092;29;20207;-54
2023/03/30 10:43:43;;;;;;;2.93;2.00;;;;;;;;;;4953997;29;20238;-54
2023/03/30 10:46:12;;;;;;;3.30;1.80;;;;;;;;;;4953887;29;20199;-53
2023/03/30 10:48:45;;;;;;;4.63;1.90;;;;;;;;;;4953802;28;20211;-53
2023/03/30 10:51:16;;;;;;;3.20;1.80;;;;;;;;;;4954093;29;20211;-54
2023/03/30 10:53:47;;;;;;;4.43;1.97;;;;;;;;;;4954060;28;20609;-54
2023/03/30 10:56:20;;;;;;;6.07;2.10;;;;;;;;;;4954138;29;20203;-54
2023/03/30 10:58:53;;;;;;;3.77;1.93;;;;;;;;;;4954043;28;20212;-54
2023/03/30 11:01:21;;;;;;;2.77;1.90;;;;;;;;;;4953679;29;20200;-54
2023/03/30 11:03:51;;;;;;;5.73;2.17;;;;;;;;;;4953608;29;20216;-54
2023/03/30 11:06:21;;;;;;;5.63;2.20;;;;;;;;;;4953739;29;20640;-54
2023/03/30 11:08:49;;;;;;;3.77;2.03;;;;;;;;;;4953748;28;20722;-54
2023/03/30 11:11:19;;;;;;;5.03;2.20;;;;;;;;;;4953638;29;20674;-54
2023/03/30 11:13:48;;;;;;;5.63;2.60;;;;;;;;;;4953584;28;20208;-53
2023/03/30 11:16:16;;;;;;;4.00;2.30;;;;;;;;;;4953676;28;20204;-53
2023/03/30 11:18:44;;;;;;;4.93;2.40;;;;;;;;;;4953437;29;20199;-53
2023/03/30 11:21:12;;;;;;;4.23;2.10;;;;;;;;;;4953626;29;20624;-53
2023/03/30 11:23:41;;;;;;;5.53;2.30;;;;;;;;;;4953199;29;20732;-54
2023/03/30 11:26:08;;;;;;;4.33;2.20;;;;;;;;;;4953307;29;20583;-53
2023/03/30 11:28:45;;;;;;;4.07;1.93;;;;;;;;;;4953260;29;20227;-53
2023/03/30 11:31:16;;;;;;;3.73;2.00;;;;;;;;;;4953492;29;20584;-54
2023/03/30 11:33:44;;;;;;;4.83;1.93;;;;;;;;;;4953521;29;20200;-54
2023/03/30 11:36:17;;;;;;;4.00;2.03;;;;;;;;;;4953452;29;20330;-53
2023/03/30 11:38:46;;;;;;;5.27;2.50;;;;;;;;;;4953267;28;20291;-53
2023/03/30 11:41:13;;;;;;;6.33;2.20;;;;;;;;;;4953597;28;20207;-53
2023/03/30 11:43:39;;;;;;;7.70;2.97;;;;;;;;;;4953291;29;20231;-53
2023/03/30 11:46:09;;;;;;;5.47;2.60;;;;;;;;;;4953360;29;20223;-53
2023/03/30 11:48:52;;;;;;;5.77;2.10;;;;;;;;;;4953356;29;20206;-53
2023/03/30 11:51:24;;;;;;;5.20;2.00;;;;;;;;;;4953417;29;20294;-53
2023/03/30 11:53:53;;;;;;;3.17;1.80;;;;;;;;;;4953425;29;20206;-53
2023/03/30 11:56:26;;;;;;;8.77;2.13;;;;;;;;;;4953375;28;20200;-53
2023/03/30 11:58:59;;;;;;;3.07;1.93;;;;;;;;;;4953505;28;20344;-53
2023/03/30 12:01:35;;;;;;;6.43;2.33;;;;;;;;;;4953318;29;20223;-54
2023/03/30 12:04:05;;;;;;;7.40;2.17;;;;;;;;;;4953466;28;20680;-54
2023/03/30 12:06:31;;;;;;;5.97;2.13;;;;;;;;;;4953204;29;20725;-54
2023/03/30 12:09:17;;;;;;;4.67;1.93;;;;;;;;;;4953499;29;20662;-54
2023/03/30 12:11:46;;;;;;;7.53;2.07;;;;;;;;;;4953397;28;20207;-55
2023/03/30 12:14:21;;;;;;;5.73;1.93;;;;;;;;;;4953373;29;20192;-55
2023/03/30 12:16:51;;;;;;;6.60;1.90;;;;;;;;;;4953009;29;20203;-54
2023/03/30 12:19:21;;;;;;;4.37;2.00;;;;;;;;;;4953052;29;20212;-54
2023/03/30 12:21:52;;;;;;;4.13;1.93;;;;;;;;;;4953170;28;20207;-54
2023/03/30 12:24:20;;;;;;;5.37;2.20;;;;;;;;;;4950297;28;20227;-54
2023/03/30 12:26:47;;;;;;;6.40;1.97;;;;;;;;;;4966992;28;20226;-54
2023/03/30 12:29:14;;;;;;;4.97;2.20;;;;;;;;;;4972492;28;20202;-54
2023/03/30 12:31:59;;;;;;;7.10;2.20;;;;;;;;;;4971846;28;20317;-54
2023/03/30 12:34:27;;;;;;;3.83;1.80;;;;;;;;;;4972150;28;20191;-53
2023/03/30 12:36:55;;;;;;;4.03;2.00;;;;;;;;;;4971717;28;20238;-55
2023/03/30 12:39:25;;;;;;;6.33;2.23;;;;;;;;;;4972215;28;20210;-54
2023/03/30 12:41:56;;;;;;;5.53;2.30;;;;;;;;;;4972130;28;20619;-53
2023/03/30 12:44:35;;;;;;;6.47;2.20;;;;;;;;;;4972094;28;20227;-54
2023/03/30 12:47:19;;;;;;;5.00;2.10;;;;;;;;;;4972358;28;20202;-54
2023/03/30 12:49:55;;;;;;;6.67;2.53;;;;;;;;;;4974290;28;20213;-54
2023/03/30 12:52:25;;;;;;;4.50;2.40;;;;;;;;;;4975492;28;20238;-53
2023/03/30 12:54:57;;;;;;;7.53;2.77;;;;;;;;;;4975307;28;20753;-53
2023/03/30 12:57:30;;;;;;;6.33;2.30;;;;;;;;;;4975404;28;20257;-54
2023/03/30 13:00:06;;;;;;;5.10;1.67;;;;;;;;;;4975382;28;20210;-53
2023/03/30 13:02:42;;;;;;;4.47;2.10;;;;;;;;;;4971565;28;20227;-54
2023/03/30 13:05:18;;;;;;;5.63;2.00;;;;;;;;;;4956011;29;20195;-54
2023/03/30 13:07:44;;;;;;;4.03;1.80;;;;;;;;;;4955551;29;20211;-54
2023/03/30 13:10:25;;;;;;;4.03;1.90;;;;;;;;;;4955944;28;20230;-53
2023/03/30 13:12:55;;;;;;;5.07;2.07;;;;;;;;;;4955608;28;20295;-55
2023/03/30 13:15:33;;;;;;;5.53;2.10;;;;;;;;;;4955747;29;20204;-53
2023/03/30 13:17:59;;;;;;;5.37;2.00;;;;;;;;;;4956065;29;20199;-54
2023/03/30 13:20:31;;;;;;;10.03;2.37;;;;;;;;;;4955857;29;20203;-54
2023/03/30 13:23:15;;;;;;;5.80;2.00;;;;;;;;;;4955791;29;20238;-53
2023/03/30 13:25:44;;;;;;;4.43;2.30;;;;;;;;;;4949123;28;20207;-53
2023/03/30 13:28:30;;;;;;;6.67;2.20;;;;;;;;;;4953703;28;20208;-53
2023/03/30 13:30:59;;;;;;;6.13;2.33;;;;;;;;;;4937296;28;20219;-53
2023/03/30 13:33:26;;;;;;;4.90;2.10;;;;;;;;;;4955350;29;20207;-54
2023/03/30 13:36:00;;;;;;;7.20;2.20;;;;;;;;;;4955460;29;20262;-55
2023/03/30 13:38:30;;;;;;;5.93;2.10;;;;;;;;;;4955004;29;20234;-53
2023/03/30 13:41:00;;;;;;;5.40;2.47;;;;;;;;;;4955449;28;20589;-53
2023/03/30 13:43:33;;;;;;;7.40;2.33;;;;;;;;;;4955424;29;20616;-53
2023/03/30 13:46:01;;;;;;;4.37;1.93;;;;;;;;;;4955567;29;20211;-53
2023/03/30 13:48:33;;;;;;;6.97;2.53;;;;;;;;;;4955421;29;20239;-53
2023/03/30 13:51:01;;;;;;;4.73;2.17;;;;;;;;;;4955756;29;20231;-54
2023/03/30 13:53:30;;;;;;;7.30;2.23;;;;;;;;;;4955544;29;20208;-53
2023/03/30 13:55:56;;;;;;;4.80;2.33;;;;;;;;;;4955600;29;20197;-54
2023/03/30 13:58:25;;;;;;;8.00;2.63;;;;;;;;;;4955455;29;20203;-55
2023/03/30 14:00:53;;;;;;;5.77;2.33;;;;;;;;;;4954898;28;20203;-54
2023/03/30 14:03:26;;;;;;;6.07;2.50;;;;;;;;;;4952380;28;20227;-54
2023/03/30 14:05:53;;;;;;;6.60;2.60;;;;;;;;;;4951972;28;20207;-54
2023/03/30 14:08:20;;;;;;;7.90;2.70;;;;;;;;;;4955194;28;20204;-53
2023/03/30 14:10:47;;;;;;;6.63;2.60;;;;;;;;;;4954929;29;20204;-53
2023/03/30 14:13:13;;;;;;;6.37;2.97;;;;;;;;;;4955205;29;20210;-53
2023/03/30 14:15:40;;;;;;;8.07;2.17;;;;;;;;;;4954463;29;20211;-54
2023/03/30 14:18:10;;;;;;;6.57;2.50;;;;;;;;;;4954845;28;20203;-54
2023/03/30 14:20:43;;;;;;;5.67;2.10;;;;;;;;;;4954724;29;20587;-53
2023/03/30 14:23:13;;;;;;;6.10;2.73;;;;;;;;;;4954825;29;20232;-53
2023/03/30 14:25:41;;;;;;;8.07;2.50;;;;;;;;;;4951172;29;20192;-53
2023/03/30 14:28:10;;;;;;;5.50;2.30;;;;;;;;;;4954827;29;20251;-54
2023/03/30 14:30:36;;;;;;;5.00;2.30;;;;;;;;;;4954464;29;20207;-53
2023/03/30 14:33:06;;;;;;;7.07;2.10;;;;;;;;;;4954637;29;20685;-52
2023/03/30 14:35:32;;;;;;;8.07;2.50;;;;;;;;;;4954472;28;20208;-52
2023/03/30 14:37:59;;;;;;;7.53;2.70;;;;;;;;;;4954874;29;20199;-52
2023/03/30 14:40:26;;;;;;;7.23;2.50;;;;;;;;;;4954576;28;20232;-52
2023/03/30 14:42:53;;;;;;;4.17;2.17;;;;;;;;;;4954446;28;20228;-53
2023/03/30 14:45:19;;;;;;;6.67;2.43;;;;;;;;;;4954440;29;20210;-51
2023/03/30 14:47:46;;;;;;;6.63;2.50;;;;;;;;;;4954429;29;20231;-52
2023/03/30 14:50:13;;;;;;;5.90;2.37;;;;;;;;;;4954583;29;20196;-51
2023/03/30 14:52:40;;;;;;;8.63;2.90;;;;;;;;;;4954302;29;20276;-53